sensor_id;sensor_type;location;lat;lon;timestamp;P1;durP1;ratioP1;P2;durP2;ratioP2
59052;SDS011;44843;44.728;10.396;2023-05-07T00:00:09;8.07;;;6.30;;
59052;SDS011;44843;44.728;10.396;2023-05-07T00:02:36;6.93;;;6.22;;
59052;SDS011;44843;44.728;10.396;2023-05-07T00:05:02;8.13;;;6.68;;
59052;SDS011;44843;44.728;10.396;2023-05-07T00:07:28;9.40;;;6.13;;
59052;SDS011;44843;44.728;10.396;2023-05-07T00:09:53;8.27;;;6.80;;
59052;SDS011;44843;44.728;10.396;2023-05-07T00:12:19;7.88;;;6.57;;
59052;SDS011;44843;44.728;10.396;2023-05-07T00:14:45;7.40;;;6.38;;
59052;SDS011;44843;44.728;10.396;2023-05-07T00:17:10;8.63;;;6.93;;
59052;SDS011;44843;44.728;10.396;2023-05-07T00:19:35;8.25;;;7.07;;
59052;SDS011;44843;44.728;10.396;2023-05-07T00:22:01;13.85;;;7.20;;
59052;SDS011;44843;44.728;10.396;2023-05-07T00:24:26;9.00;;;6.65;;
59052;SDS011;44843;44.728;10.396;2023-05-07T00:26:51;9.68;;;6.97;;
59052;SDS011;44843;44.728;10.396;2023-05-07T00:29:17;11.52;;;7.45;;
59052;SDS011;44843;44.728;10.396;2023-05-07T00:31:43;9.88;;;7.00;;
59052;SDS011;44843;44.728;10.396;2023-05-07T00:34:08;12.93;;;7.22;;
59052;SDS011;44843;44.728;10.396;2023-05-07T00:36:33;10.25;;;7.68;;
59052;SDS011;44843;44.728;10.396;2023-05-07T00:38:59;11.27;;;7.18;;
59052;SDS011;44843;44.728;10.396;2023-05-07T00:41:27;10.25;;;7.65;;
59052;SDS011;44843;44.728;10.396;2023-05-07T00:43:52;10.75;;;8.77;;
59052;SDS011;44843;44.728;10.396;2023-05-07T00:46:19;10.38;;;8.88;;
59052;SDS011;44843;44.728;10.396;2023-05-07T00:48:45;14.68;;;9.25;;
59052;SDS011;44843;44.728;10.396;2023-05-07T00:51:11;12.32;;;8.95;;
59052;SDS011;44843;44.728;10.396;2023-05-07T00:53:37;10.52;;;9.02;;
59052;SDS011;44843;44.728;10.396;2023-05-07T00:56:03;11.35;;;8.80;;
59052;SDS011;44843;44.728;10.396;2023-05-07T00:58:29;10.43;;;8.75;;
59052;SDS011;44843;44.728;10.396;2023-05-07T01:00:55;11.32;;;8.40;;
59052;SDS011;44843;44.728;10.396;2023-05-07T01:03:20;11.38;;;8.60;;
59052;SDS011;44843;44.728;10.396;2023-05-07T01:05:46;10.07;;;8.63;;
59052;SDS011;44843;44.728;10.396;2023-05-07T01:08:13;10.52;;;8.80;;
59052;SDS011;44843;44.728;10.396;2023-05-07T01:10:40;10.00;;;8.55;;
59052;SDS011;44843;44.728;10.396;2023-05-07T01:13:08;11.43;;;8.50;;
59052;SDS011;44843;44.728;10.396;2023-05-07T01:15:37;13.90;;;8.98;;
59052;SDS011;44843;44.728;10.396;2023-05-07T01:18:03;11.65;;;8.45;;
59052;SDS011;44843;44.728;10.396;2023-05-07T01:20:29;11.63;;;8.60;;
59052;SDS011;44843;44.728;10.396;2023-05-07T01:22:55;10.27;;;8.70;;
59052;SDS011;44843;44.728;10.396;2023-05-07T01:25:22;13.05;;;9.07;;
59052;SDS011;44843;44.728;10.396;2023-05-07T01:27:48;10.88;;;8.80;;
59052;SDS011;44843;44.728;10.396;2023-05-07T01:30:13;10.88;;;9.02;;
59052;SDS011;44843;44.728;10.396;2023-05-07T01:32:52;9.23;;;8.23;;
59052;SDS011;44843;44.728;10.396;2023-05-07T01:35:22;11.10;;;8.02;;
59052;SDS011;44843;44.728;10.396;2023-05-07T01:37:53;8.38;;;7.57;;
59052;SDS011;44843;44.728;10.396;2023-05-07T01:40:19;11.45;;;8.07;;
59052;SDS011;44843;44.728;10.396;2023-05-07T01:42:46;12.27;;;8.32;;
59052;SDS011;44843;44.728;10.396;2023-05-07T01:45:13;11.23;;;8.10;;
59052;SDS011;44843;44.728;10.396;2023-05-07T01:47:38;10.95;;;8.55;;
59052;SDS011;44843;44.728;10.396;2023-05-07T01:50:07;11.63;;;8.43;;
59052;SDS011;44843;44.728;10.396;2023-05-07T01:52:34;10.98;;;8.65;;
59052;SDS011;44843;44.728;10.396;2023-05-07T01:55:02;9.25;;;8.25;;
59052;SDS011;44843;44.728;10.396;2023-05-07T01:57:27;9.88;;;8.68;;
59052;SDS011;44843;44.728;10.396;2023-05-07T01:59:53;11.23;;;8.82;;
59052;SDS011;44843;44.728;10.396;2023-05-07T02:02:18;12.48;;;8.70;;
59052;SDS011;44843;44.728;10.396;2023-05-07T02:04:43;10.98;;;9.10;;
59052;SDS011;44843;44.728;10.396;2023-05-07T02:07:09;10.18;;;9.10;;
59052;SDS011;44843;44.728;10.396;2023-05-07T02:09:35;10.60;;;8.70;;
59052;SDS011;44843;44.728;10.396;2023-05-07T02:12:00;14.10;;;9.68;;
59052;SDS011;44843;44.728;10.396;2023-05-07T02:14:26;11.75;;;8.98;;
59052;SDS011;44843;44.728;10.396;2023-05-07T02:16:51;12.63;;;8.80;;
59052;SDS011;44843;44.728;10.396;2023-05-07T02:19:17;15.00;;;9.57;;
59052;SDS011;44843;44.728;10.396;2023-05-07T02:21:43;13.82;;;10.02;;
59052;SDS011;44843;44.728;10.396;2023-05-07T02:24:08;14.93;;;11.02;;
59052;SDS011;44843;44.728;10.396;2023-05-07T02:26:34;15.25;;;12.00;;
59052;SDS011;44843;44.728;10.396;2023-05-07T02:28:59;15.85;;;12.85;;
59052;SDS011;44843;44.728;10.396;2023-05-07T02:31:25;16.85;;;12.50;;
59052;SDS011;44843;44.728;10.396;2023-05-07T02:33:50;18.25;;;13.30;;
59052;SDS011;44843;44.728;10.396;2023-05-07T02:36:16;18.88;;;14.02;;
59052;SDS011;44843;44.728;10.396;2023-05-07T02:38:41;21.60;;;14.32;;
59052;SDS011;44843;44.728;10.396;2023-05-07T02:41:07;21.92;;;16.35;;
59052;SDS011;44843;44.728;10.396;2023-05-07T02:43:32;18.70;;;15.23;;
59052;SDS011;44843;44.728;10.396;2023-05-07T02:46:04;22.45;;;13.90;;
59052;SDS011;44843;44.728;10.396;2023-05-07T02:48:31;15.75;;;11.77;;
59052;SDS011;44843;44.728;10.396;2023-05-07T02:50:56;14.43;;;10.93;;
59052;SDS011;44843;44.728;10.396;2023-05-07T02:53:22;11.57;;;10.18;;
59052;SDS011;44843;44.728;10.396;2023-05-07T02:55:50;13.10;;;10.35;;
59052;SDS011;44843;44.728;10.396;2023-05-07T02:58:15;13.90;;;10.32;;
59052;SDS011;44843;44.728;10.396;2023-05-07T03:00:41;12.82;;;10.55;;
59052;SDS011;44843;44.728;10.396;2023-05-07T03:03:06;14.48;;;10.75;;
59052;SDS011;44843;44.728;10.396;2023-05-07T03:05:31;15.82;;;10.02;;
59052;SDS011;44843;44.728;10.396;2023-05-07T03:07:57;17.88;;;10.68;;
59052;SDS011;44843;44.728;10.396;2023-05-07T03:10:22;17.02;;;10.90;;
59052;SDS011;44843;44.728;10.396;2023-05-07T03:12:47;12.77;;;10.45;;
59052;SDS011;44843;44.728;10.396;2023-05-07T03:15:13;14.68;;;10.57;;
59052;SDS011;44843;44.728;10.396;2023-05-07T03:17:38;17.48;;;11.57;;
59052;SDS011;44843;44.728;10.396;2023-05-07T03:20:04;14.10;;;11.63;;
59052;SDS011;44843;44.728;10.396;2023-05-07T03:22:32;18.13;;;11.88;;
59052;SDS011;44843;44.728;10.396;2023-05-07T03:24:57;18.50;;;12.45;;
59052;SDS011;44843;44.728;10.396;2023-05-07T03:27:22;17.30;;;12.73;;
59052;SDS011;44843;44.728;10.396;2023-05-07T03:29:48;19.05;;;12.90;;
59052;SDS011;44843;44.728;10.396;2023-05-07T03:32:13;17.17;;;12.88;;
59052;SDS011;44843;44.728;10.396;2023-05-07T03:34:39;18.63;;;13.30;;
59052;SDS011;44843;44.728;10.396;2023-05-07T03:37:04;19.80;;;13.27;;
59052;SDS011;44843;44.728;10.396;2023-05-07T03:39:30;15.88;;;11.30;;
59052;SDS011;44843;44.728;10.396;2023-05-07T03:41:57;18.55;;;11.85;;
59052;SDS011;44843;44.728;10.396;2023-05-07T03:44:23;17.02;;;11.52;;
59052;SDS011;44843;44.728;10.396;2023-05-07T03:46:48;14.98;;;11.63;;
59052;SDS011;44843;44.728;10.396;2023-05-07T03:49:14;14.32;;;10.65;;
59052;SDS011;44843;44.728;10.396;2023-05-07T03:51:39;14.40;;;10.65;;
59052;SDS011;44843;44.728;10.396;2023-05-07T03:54:04;13.48;;;10.23;;
59052;SDS011;44843;44.728;10.396;2023-05-07T03:56:30;15.63;;;10.75;;
59052;SDS011;44843;44.728;10.396;2023-05-07T03:58:56;15.23;;;11.13;;
59052;SDS011;44843;44.728;10.396;2023-05-07T04:01:21;11.07;;;9.82;;
59052;SDS011;44843;44.728;10.396;2023-05-07T04:03:47;12.55;;;9.65;;
59052;SDS011;44843;44.728;10.396;2023-05-07T04:06:12;16.73;;;9.55;;
59052;SDS011;44843;44.728;10.396;2023-05-07T04:08:37;12.57;;;9.38;;
59052;SDS011;44843;44.728;10.396;2023-05-07T04:11:03;15.57;;;10.50;;
59052;SDS011;44843;44.728;10.396;2023-05-07T04:13:29;12.15;;;9.18;;
59052;SDS011;44843;44.728;10.396;2023-05-07T04:15:55;12.02;;;9.15;;
59052;SDS011;44843;44.728;10.396;2023-05-07T04:18:20;13.65;;;9.43;;
59052;SDS011;44843;44.728;10.396;2023-05-07T04:20:47;12.73;;;9.52;;
59052;SDS011;44843;44.728;10.396;2023-05-07T04:23:12;13.70;;;8.52;;
59052;SDS011;44843;44.728;10.396;2023-05-07T04:25:38;11.75;;;8.00;;
59052;SDS011;44843;44.728;10.396;2023-05-07T04:28:03;11.45;;;7.32;;
59052;SDS011;44843;44.728;10.396;2023-05-07T04:30:29;11.00;;;7.80;;
59052;SDS011;44843;44.728;10.396;2023-05-07T04:32:54;12.23;;;7.38;;
59052;SDS011;44843;44.728;10.396;2023-05-07T04:35:21;9.65;;;7.47;;
59052;SDS011;44843;44.728;10.396;2023-05-07T04:37:46;9.30;;;7.45;;
59052;SDS011;44843;44.728;10.396;2023-05-07T04:40:12;11.07;;;7.00;;
59052;SDS011;44843;44.728;10.396;2023-05-07T04:42:37;7.55;;;6.70;;
59052;SDS011;44843;44.728;10.396;2023-05-07T04:45:03;9.23;;;6.63;;
59052;SDS011;44843;44.728;10.396;2023-05-07T04:47:29;9.85;;;6.90;;
59052;SDS011;44843;44.728;10.396;2023-05-07T04:49:55;10.60;;;7.40;;
59052;SDS011;44843;44.728;10.396;2023-05-07T04:52:20;9.90;;;8.02;;
59052;SDS011;44843;44.728;10.396;2023-05-07T04:54:46;9.93;;;7.43;;
59052;SDS011;44843;44.728;10.396;2023-05-07T04:57:11;10.60;;;7.20;;
59052;SDS011;44843;44.728;10.396;2023-05-07T04:59:37;8.00;;;6.18;;
59052;SDS011;44843;44.728;10.396;2023-05-07T05:02:02;10.77;;;6.05;;
59052;SDS011;44843;44.728;10.396;2023-05-07T05:04:29;8.70;;;7.15;;
59052;SDS011;44843;44.728;10.396;2023-05-07T05:06:54;10.32;;;6.68;;
59052;SDS011;44843;44.728;10.396;2023-05-07T05:09:20;9.82;;;6.65;;
59052;SDS011;44843;44.728;10.396;2023-05-07T05:11:45;7.65;;;5.55;;
59052;SDS011;44843;44.728;10.396;2023-05-07T05:14:11;8.75;;;6.13;;
59052;SDS011;44843;44.728;10.396;2023-05-07T05:16:36;9.07;;;5.50;;
59052;SDS011;44843;44.728;10.396;2023-05-07T05:19:01;6.03;;;5.43;;
59052;SDS011;44843;44.728;10.396;2023-05-07T05:21:27;5.68;;;5.05;;
59052;SDS011;44843;44.728;10.396;2023-05-07T05:23:52;5.15;;;4.65;;
59052;SDS011;44843;44.728;10.396;2023-05-07T05:26:18;6.07;;;5.20;;
59052;SDS011;44843;44.728;10.396;2023-05-07T06:24:32;6.47;;;4.88;;
59052;SDS011;44843;44.728;10.396;2023-05-07T06:26:57;6.78;;;5.03;;
59052;SDS011;44843;44.728;10.396;2023-05-07T06:29:23;7.30;;;5.10;;
59052;SDS011;44843;44.728;10.396;2023-05-07T06:31:51;5.75;;;5.10;;
59052;SDS011;44843;44.728;10.396;2023-05-07T06:34:17;6.72;;;5.38;;
59052;SDS011;44843;44.728;10.396;2023-05-07T06:36:43;7.53;;;5.57;;
59052;SDS011;44843;44.728;10.396;2023-05-07T06:39:08;7.53;;;5.07;;
59052;SDS011;44843;44.728;10.396;2023-05-07T06:41:34;8.60;;;5.60;;
59052;SDS011;44843;44.728;10.396;2023-05-07T06:44:00;5.88;;;4.97;;
59052;SDS011;44843;44.728;10.396;2023-05-07T06:46:27;6.88;;;5.65;;
59052;SDS011;44843;44.728;10.396;2023-05-07T06:48:52;7.45;;;5.45;;
59052;SDS011;44843;44.728;10.396;2023-05-07T06:51:18;6.97;;;5.20;;
59052;SDS011;44843;44.728;10.396;2023-05-07T06:53:43;6.13;;;5.03;;
59052;SDS011;44843;44.728;10.396;2023-05-07T06:56:08;5.70;;;4.80;;
59052;SDS011;44843;44.728;10.396;2023-05-07T06:58:34;5.55;;;4.97;;
59052;SDS011;44843;44.728;10.396;2023-05-07T07:01:00;5.80;;;4.78;;
59052;SDS011;44843;44.728;10.396;2023-05-07T07:03:25;7.00;;;4.73;;
59052;SDS011;44843;44.728;10.396;2023-05-07T07:05:54;7.53;;;4.65;;
59052;SDS011;44843;44.728;10.396;2023-05-07T07:08:20;6.13;;;5.53;;
59052;SDS011;44843;44.728;10.396;2023-05-07T07:10:47;7.60;;;5.82;;
59052;SDS011;44843;44.728;10.396;2023-05-07T07:13:12;6.88;;;6.20;;
59052;SDS011;44843;44.728;10.396;2023-05-07T07:15:38;9.48;;;6.53;;
59052;SDS011;44843;44.728;10.396;2023-05-07T07:18:04;9.52;;;7.65;;
59052;SDS011;44843;44.728;10.396;2023-05-07T07:20:29;9.00;;;7.20;;
59052;SDS011;44843;44.728;10.396;2023-05-07T07:22:55;8.95;;;7.20;;
59052;SDS011;44843;44.728;10.396;2023-05-07T07:25:20;8.07;;;7.10;;
59052;SDS011;44843;44.728;10.396;2023-05-07T07:27:45;13.95;;;8.20;;
59052;SDS011;44843;44.728;10.396;2023-05-07T07:30:11;12.07;;;8.07;;
59052;SDS011;44843;44.728;10.396;2023-05-07T07:32:37;15.02;;;7.72;;
59052;SDS011;44843;44.728;10.396;2023-05-07T07:35:02;10.45;;;8.07;;
59052;SDS011;44843;44.728;10.396;2023-05-07T07:44:44;11.80;;;8.65;;
59052;SDS011;44843;44.728;10.396;2023-05-07T07:47:09;11.68;;;8.82;;
59052;SDS011;44843;44.728;10.396;2023-05-07T07:49:35;12.50;;;10.23;;
59052;SDS011;44843;44.728;10.396;2023-05-07T07:52:01;12.32;;;10.15;;
59052;SDS011;44843;44.728;10.396;2023-05-07T07:54:26;10.67;;;9.57;;
59052;SDS011;44843;44.728;10.396;2023-05-07T07:56:52;11.93;;;9.67;;
59052;SDS011;44843;44.728;10.396;2023-05-07T07:59:17;12.07;;;10.13;;
59052;SDS011;44843;44.728;10.396;2023-05-07T08:01:44;11.43;;;10.13;;
59052;SDS011;44843;44.728;10.396;2023-05-07T08:04:09;12.38;;;10.55;;
59052;SDS011;44843;44.728;10.396;2023-05-07T08:06:35;13.05;;;9.98;;
59052;SDS011;44843;44.728;10.396;2023-05-07T08:09:00;10.33;;;9.23;;
59052;SDS011;44843;44.728;10.396;2023-05-07T08:11:26;13.57;;;10.60;;
59052;SDS011;44843;44.728;10.396;2023-05-07T08:13:51;11.68;;;10.02;;
59052;SDS011;44843;44.728;10.396;2023-05-07T08:16:17;10.73;;;9.63;;
59052;SDS011;44843;44.728;10.396;2023-05-07T08:18:42;12.87;;;10.40;;
59052;SDS011;44843;44.728;10.396;2023-05-07T08:21:08;12.75;;;10.73;;
59052;SDS011;44843;44.728;10.396;2023-05-07T08:23:33;12.40;;;11.00;;
59052;SDS011;44843;44.728;10.396;2023-05-07T08:25:59;16.08;;;10.40;;
59052;SDS011;44843;44.728;10.396;2023-05-07T08:28:25;12.75;;;10.77;;
59052;SDS011;44843;44.728;10.396;2023-05-07T08:30:50;11.47;;;9.60;;
59052;SDS011;44843;44.728;10.396;2023-05-07T08:33:16;12.05;;;9.93;;
59052;SDS011;44843;44.728;10.396;2023-05-07T08:35:41;10.20;;;9.10;;
59052;SDS011;44843;44.728;10.396;2023-05-07T08:38:07;13.10;;;11.00;;
59052;SDS011;44843;44.728;10.396;2023-05-07T08:40:35;11.80;;;10.60;;
59052;SDS011;44843;44.728;10.396;2023-05-07T08:43:02;10.87;;;9.13;;
59052;SDS011;44843;44.728;10.396;2023-05-07T08:45:30;11.05;;;9.70;;
59052;SDS011;44843;44.728;10.396;2023-05-07T08:47:58;11.57;;;9.38;;
59052;SDS011;44843;44.728;10.396;2023-05-07T08:50:26;14.20;;;11.88;;
59052;SDS011;44843;44.728;10.396;2023-05-07T08:52:52;14.82;;;10.57;;
59052;SDS011;44843;44.728;10.396;2023-05-07T08:55:17;13.07;;;11.03;;
59052;SDS011;44843;44.728;10.396;2023-05-07T08:57:43;12.50;;;11.03;;
59052;SDS011;44843;44.728;10.396;2023-05-07T09:00:09;12.50;;;10.50;;
59052;SDS011;44843;44.728;10.396;2023-05-07T09:02:35;10.60;;;9.50;;
59052;SDS011;44843;44.728;10.396;2023-05-07T09:05:01;13.50;;;10.95;;
59052;SDS011;44843;44.728;10.396;2023-05-07T09:07:27;11.40;;;10.30;;
59052;SDS011;44843;44.728;10.396;2023-05-07T09:09:53;12.07;;;10.75;;
59052;SDS011;44843;44.728;10.396;2023-05-07T09:12:20;12.15;;;9.35;;
59052;SDS011;44843;44.728;10.396;2023-05-07T09:14:46;9.32;;;8.32;;
59052;SDS011;44843;44.728;10.396;2023-05-07T09:17:12;11.33;;;9.93;;
59052;SDS011;44843;44.728;10.396;2023-05-07T09:19:38;11.00;;;9.60;;
59052;SDS011;44843;44.728;10.396;2023-05-07T09:22:04;11.60;;;10.27;;
59052;SDS011;44843;44.728;10.396;2023-05-07T09:24:32;13.20;;;9.93;;
59052;SDS011;44843;44.728;10.396;2023-05-07T09:27:03;11.77;;;9.77;;
59052;SDS011;44843;44.728;10.396;2023-05-07T09:29:29;11.02;;;8.68;;
59052;SDS011;44843;44.728;10.396;2023-05-07T09:31:55;10.95;;;8.90;;
59052;SDS011;44843;44.728;10.396;2023-05-07T09:34:21;10.10;;;8.88;;
59052;SDS011;44843;44.728;10.396;2023-05-07T09:36:47;12.20;;;8.93;;
59052;SDS011;44843;44.728;10.396;2023-05-07T09:39:13;9.13;;;7.60;;
59052;SDS011;44843;44.728;10.396;2023-05-07T09:41:44;9.48;;;8.10;;
59052;SDS011;44843;44.728;10.396;2023-05-07T09:44:11;8.98;;;7.90;;
59052;SDS011;44843;44.728;10.396;2023-05-07T09:46:36;12.30;;;8.93;;
59052;SDS011;44843;44.728;10.396;2023-05-07T09:49:03;10.90;;;7.50;;
59052;SDS011;44843;44.728;10.396;2023-05-07T09:51:38;10.15;;;8.63;;
59052;SDS011;44843;44.728;10.396;2023-05-07T09:54:06;10.00;;;7.25;;
59052;SDS011;44843;44.728;10.396;2023-05-07T09:56:32;9.43;;;7.03;;
59052;SDS011;44843;44.728;10.396;2023-05-07T09:59:01;7.88;;;6.72;;
59052;SDS011;44843;44.728;10.396;2023-05-07T10:01:29;12.93;;;9.68;;
59052;SDS011;44843;44.728;10.396;2023-05-07T10:03:56;9.75;;;8.73;;
59052;SDS011;44843;44.728;10.396;2023-05-07T10:06:24;9.68;;;8.63;;
59052;SDS011;44843;44.728;10.396;2023-05-07T10:08:50;9.05;;;7.45;;
59052;SDS011;44843;44.728;10.396;2023-05-07T10:11:18;10.13;;;7.57;;
59052;SDS011;44843;44.728;10.396;2023-05-07T10:13:43;8.77;;;6.85;;
59052;SDS011;44843;44.728;10.396;2023-05-07T10:16:11;8.38;;;7.05;;
59052;SDS011;44843;44.728;10.396;2023-05-07T10:18:37;7.45;;;6.60;;
59052;SDS011;44843;44.728;10.396;2023-05-07T10:21:11;8.60;;;7.50;;
59052;SDS011;44843;44.728;10.396;2023-05-07T10:23:40;6.85;;;6.25;;
59052;SDS011;44843;44.728;10.396;2023-05-07T10:26:09;8.35;;;7.45;;
59052;SDS011;44843;44.728;10.396;2023-05-07T10:28:38;9.23;;;7.80;;
59052;SDS011;44843;44.728;10.396;2023-05-07T10:33:41;9.23;;;8.23;;
59052;SDS011;44843;44.728;10.396;2023-05-07T10:36:09;7.63;;;6.25;;
59052;SDS011;44843;44.728;10.396;2023-05-07T10:38:35;6.23;;;5.17;;
59052;SDS011;44843;44.728;10.396;2023-05-07T10:41:01;6.67;;;5.60;;
59052;SDS011;44843;44.728;10.396;2023-05-07T10:43:42;9.20;;;5.85;;
59052;SDS011;44843;44.728;10.396;2023-05-07T10:46:09;6.10;;;5.10;;
59052;SDS011;44843;44.728;10.396;2023-05-07T10:51:25;7.53;;;6.63;;
59052;SDS011;44843;44.728;10.396;2023-05-07T10:54:18;7.30;;;6.55;;
59052;SDS011;44843;44.728;10.396;2023-05-07T10:56:40;8.20;;;7.07;;
59052;SDS011;44843;44.728;10.396;2023-05-07T11:01:59;7.88;;;6.90;;
59052;SDS011;44843;44.728;10.396;2023-05-07T11:04:28;9.20;;;7.00;;
59052;SDS011;44843;44.728;10.396;2023-05-07T11:12:18;8.27;;;6.43;;
59052;SDS011;44843;44.728;10.396;2023-05-07T11:15:09;6.07;;;5.47;;
59052;SDS011;44843;44.728;10.396;2023-05-07T11:26:04;6.85;;;5.07;;
59052;SDS011;44843;44.728;10.396;2023-05-07T11:28:31;15.95;;;9.20;;
59052;SDS011;44843;44.728;10.396;2023-05-07T11:31:01;18.13;;;9.95;;
59052;SDS011;44843;44.728;10.396;2023-05-07T11:33:27;11.73;;;9.25;;
59052;SDS011;44843;44.728;10.396;2023-05-07T11:35:53;11.40;;;8.50;;
59052;SDS011;44843;44.728;10.396;2023-05-07T11:38:19;11.00;;;9.02;;
59052;SDS011;44843;44.728;10.396;2023-05-07T11:43:18;10.43;;;7.70;;
59052;SDS011;44843;44.728;10.396;2023-05-07T11:45:44;10.48;;;7.88;;
59052;SDS011;44843;44.728;10.396;2023-05-07T11:48:12;10.63;;;7.82;;
59052;SDS011;44843;44.728;10.396;2023-05-07T11:50:51;10.80;;;8.07;;
59052;SDS011;44843;44.728;10.396;2023-05-07T11:53:20;9.80;;;8.00;;
59052;SDS011;44843;44.728;10.396;2023-05-07T11:55:51;9.65;;;7.15;;
59052;SDS011;44843;44.728;10.396;2023-05-07T11:58:20;7.80;;;6.43;;
59052;SDS011;44843;44.728;10.396;2023-05-07T12:00:50;9.40;;;6.90;;
59052;SDS011;44843;44.728;10.396;2023-05-07T12:03:16;8.85;;;6.30;;
59052;SDS011;44843;44.728;10.396;2023-05-07T12:05:43;9.27;;;7.22;;
59052;SDS011;44843;44.728;10.396;2023-05-07T12:08:13;9.15;;;6.38;;
59052;SDS011;44843;44.728;10.396;2023-05-07T12:10:43;9.73;;;6.78;;
59052;SDS011;44843;44.728;10.396;2023-05-07T12:13:16;8.93;;;5.85;;
59052;SDS011;44843;44.728;10.396;2023-05-07T12:15:42;8.95;;;5.55;;
59052;SDS011;44843;44.728;10.396;2023-05-07T12:18:08;8.82;;;5.70;;
59052;SDS011;44843;44.728;10.396;2023-05-07T12:20:36;6.57;;;5.80;;
59052;SDS011;44843;44.728;10.396;2023-05-07T12:23:02;6.30;;;5.70;;
59052;SDS011;44843;44.728;10.396;2023-05-07T12:25:31;14.68;;;6.65;;
59052;SDS011;44843;44.728;10.396;2023-05-07T12:28:01;9.15;;;5.45;;
59052;SDS011;44843;44.728;10.396;2023-05-07T12:30:27;6.40;;;5.57;;
59052;SDS011;44843;44.728;10.396;2023-05-07T12:32:53;11.77;;;6.78;;
59052;SDS011;44843;44.728;10.396;2023-05-07T12:37:57;6.95;;;5.30;;
59052;SDS011;44843;44.728;10.396;2023-05-07T12:40:25;6.38;;;5.50;;
59052;SDS011;44843;44.728;10.396;2023-05-07T12:43:00;7.25;;;5.97;;
59052;SDS011;44843;44.728;10.396;2023-05-07T12:45:26;6.43;;;5.50;;
59052;SDS011;44843;44.728;10.396;2023-05-07T12:47:51;6.00;;;5.40;;
59052;SDS011;44843;44.728;10.396;2023-05-07T12:50:17;7.72;;;5.90;;
59052;SDS011;44843;44.728;10.396;2023-05-07T12:52:43;7.72;;;5.40;;
59052;SDS011;44843;44.728;10.396;2023-05-07T12:55:11;6.95;;;5.32;;
59052;SDS011;44843;44.728;10.396;2023-05-07T12:57:40;7.38;;;5.18;;
59052;SDS011;44843;44.728;10.396;2023-05-07T13:00:07;5.38;;;4.70;;
59052;SDS011;44843;44.728;10.396;2023-05-07T13:02:34;10.85;;;6.38;;
59052;SDS011;44843;44.728;10.396;2023-05-07T13:05:02;9.68;;;6.35;;
59052;SDS011;44843;44.728;10.396;2023-05-07T13:07:27;6.93;;;6.22;;
59052;SDS011;44843;44.728;10.396;2023-05-07T13:09:53;6.88;;;5.32;;
59052;SDS011;44843;44.728;10.396;2023-05-07T13:12:18;6.35;;;5.10;;
59052;SDS011;44843;44.728;10.396;2023-05-07T13:14:44;6.00;;;5.40;;
59052;SDS011;44843;44.728;10.396;2023-05-07T13:17:09;6.50;;;5.68;;
59052;SDS011;44843;44.728;10.396;2023-05-07T13:19:34;6.30;;;5.32;;
59052;SDS011;44843;44.728;10.396;2023-05-07T13:22:02;7.00;;;6.30;;
59052;SDS011;44843;44.728;10.396;2023-05-07T13:24:27;5.95;;;5.20;;
59052;SDS011;44843;44.728;10.396;2023-05-07T13:26:53;7.32;;;6.32;;
59052;SDS011;44843;44.728;10.396;2023-05-07T13:29:18;10.00;;;5.85;;
59052;SDS011;44843;44.728;10.396;2023-05-07T13:31:43;6.90;;;6.07;;
59052;SDS011;44843;44.728;10.396;2023-05-07T13:34:09;9.40;;;6.15;;
59052;SDS011;44843;44.728;10.396;2023-05-07T13:36:34;7.75;;;6.55;;
59052;SDS011;44843;44.728;10.396;2023-05-07T13:39:02;6.20;;;5.60;;
59052;SDS011;44843;44.728;10.396;2023-05-07T13:41:28;6.57;;;5.47;;
59052;SDS011;44843;44.728;10.396;2023-05-07T13:43:54;6.63;;;5.50;;
59052;SDS011;44843;44.728;10.396;2023-05-07T13:46:19;8.45;;;6.13;;
59052;SDS011;44843;44.728;10.396;2023-05-07T13:48:44;8.00;;;5.88;;
59052;SDS011;44843;44.728;10.396;2023-05-07T13:51:10;7.68;;;5.65;;
59052;SDS011;44843;44.728;10.396;2023-05-07T13:53:35;8.57;;;6.47;;
59052;SDS011;44843;44.728;10.396;2023-05-07T13:56:01;6.97;;;6.18;;
59052;SDS011;44843;44.728;10.396;2023-05-07T13:58:29;7.55;;;6.07;;
59052;SDS011;44843;44.728;10.396;2023-05-07T14:00:55;8.50;;;6.35;;
59052;SDS011;44843;44.728;10.396;2023-05-07T14:03:20;7.40;;;6.43;;
59052;SDS011;44843;44.728;10.396;2023-05-07T14:05:45;7.70;;;6.45;;
59052;SDS011;44843;44.728;10.396;2023-05-07T14:08:11;9.02;;;6.97;;
59052;SDS011;44843;44.728;10.396;2023-05-07T14:10:38;9.63;;;7.18;;
59052;SDS011;44843;44.728;10.396;2023-05-07T14:13:04;6.53;;;5.93;;
59052;SDS011;44843;44.728;10.396;2023-05-07T14:15:30;8.15;;;5.88;;
59052;SDS011;44843;44.728;10.396;2023-05-07T14:17:57;5.50;;;4.40;;
59052;SDS011;44843;44.728;10.396;2023-05-07T14:20:23;9.50;;;5.78;;
59052;SDS011;44843;44.728;10.396;2023-05-07T14:22:49;6.35;;;5.10;;
59052;SDS011;44843;44.728;10.396;2023-05-07T14:25:15;7.97;;;6.15;;
59052;SDS011;44843;44.728;10.396;2023-05-07T14:27:40;7.63;;;4.97;;
59052;SDS011;44843;44.728;10.396;2023-05-07T14:30:06;7.40;;;5.63;;
59052;SDS011;44843;44.728;10.396;2023-05-07T14:32:32;6.53;;;5.03;;
59052;SDS011;44843;44.728;10.396;2023-05-07T14:34:58;14.73;;;6.63;;
59052;SDS011;44843;44.728;10.396;2023-05-07T14:37:23;5.82;;;5.05;;
59052;SDS011;44843;44.728;10.396;2023-05-07T14:39:49;6.82;;;4.78;;
59052;SDS011;44843;44.728;10.396;2023-05-07T14:42:14;5.88;;;5.22;;
59052;SDS011;44843;44.728;10.396;2023-05-07T14:44:40;9.55;;;5.00;;
59052;SDS011;44843;44.728;10.396;2023-05-07T14:47:06;8.45;;;5.28;;
59052;SDS011;44843;44.728;10.396;2023-05-07T14:49:32;5.43;;;4.75;;
59052;SDS011;44843;44.728;10.396;2023-05-07T14:51:58;5.25;;;4.50;;
59052;SDS011;44843;44.728;10.396;2023-05-07T14:54:25;6.50;;;4.90;;
59052;SDS011;44843;44.728;10.396;2023-05-07T14:56:50;7.68;;;5.15;;
59052;SDS011;44843;44.728;10.396;2023-05-07T14:59:16;6.20;;;4.90;;
59052;SDS011;44843;44.728;10.396;2023-05-07T15:01:44;5.47;;;4.03;;
59052;SDS011;44843;44.728;10.396;2023-05-07T15:04:10;5.13;;;4.32;;
59052;SDS011;44843;44.728;10.396;2023-05-07T15:06:36;8.75;;;5.25;;
59052;SDS011;44843;44.728;10.396;2023-05-07T15:09:01;5.50;;;4.50;;
59052;SDS011;44843;44.728;10.396;2023-05-07T15:11:27;7.05;;;4.90;;
59052;SDS011;44843;44.728;10.396;2023-05-07T15:13:53;6.50;;;5.05;;
59052;SDS011;44843;44.728;10.396;2023-05-07T15:16:19;5.28;;;4.43;;
59052;SDS011;44843;44.728;10.396;2023-05-07T15:18:45;7.80;;;4.45;;
59052;SDS011;44843;44.728;10.396;2023-05-07T15:21:11;5.28;;;4.75;;
59052;SDS011;44843;44.728;10.396;2023-05-07T15:23:36;6.20;;;4.75;;
59052;SDS011;44843;44.728;10.396;2023-05-07T15:26:02;6.72;;;4.97;;
59052;SDS011;44843;44.728;10.396;2023-05-07T15:28:27;6.13;;;5.05;;
59052;SDS011;44843;44.728;10.396;2023-05-07T15:30:54;6.13;;;4.88;;
59052;SDS011;44843;44.728;10.396;2023-05-07T15:33:20;7.10;;;4.90;;
59052;SDS011;44843;44.728;10.396;2023-05-07T15:35:45;6.43;;;5.57;;
59052;SDS011;44843;44.728;10.396;2023-05-07T15:38:11;8.60;;;5.15;;
59052;SDS011;44843;44.728;10.396;2023-05-07T15:40:38;7.15;;;5.03;;
59052;SDS011;44843;44.728;10.396;2023-05-07T15:43:07;5.53;;;4.30;;
59052;SDS011;44843;44.728;10.396;2023-05-07T15:45:33;7.35;;;5.78;;
59052;SDS011;44843;44.728;10.396;2023-05-07T15:48:04;7.00;;;4.95;;
59052;SDS011;44843;44.728;10.396;2023-05-07T15:50:29;9.20;;;5.55;;